createdAt,value
2023-01-12T00:02:28.644Z,29.49
2023-01-12T00:04:57.936Z,29.46
2023-01-12T00:07:27.183Z,29.48
2023-01-12T00:09:56.420Z,29.48
2023-01-12T00:12:25.597Z,29.45
2023-01-12T00:14:55.170Z,29.47
2023-01-12T00:17:24.438Z,29.46
2023-01-12T00:19:55.235Z,29.46
2023-01-12T00:22:24.458Z,29.48
2023-01-12T00:24:53.635Z,29.45
2023-01-12T00:27:22.860Z,29.45
2023-01-12T00:32:46.767Z,29.46
2023-01-12T00:35:18.298Z,29.46
2023-01-12T00:37:47.573Z,29.48
2023-01-12T00:40:17.563Z,29.46
2023-01-12T00:43:05.042Z,29.48
2023-01-12T00:45:34.517Z,29.45
2023-01-12T00:48:03.978Z,29.48
2023-01-12T00:50:33.315Z,29.45
2023-01-12T00:53:02.762Z,29.46
2023-01-12T00:55:32.115Z,29.51
2023-01-12T00:58:01.404Z,29.43
2023-01-12T01:00:30.641Z,29.45
2023-01-12T01:03:01.449Z,29.43
2023-01-12T01:05:33.261Z,29.44
2023-01-12T01:08:02.519Z,29.43
2023-01-12T01:10:31.790Z,29.44
2023-01-12T01:13:01.045Z,29.45
2023-01-12T01:15:30.433Z,29.41
2023-01-12T01:17:59.788Z,29.42
2023-01-12T01:20:29.187Z,29.45
2023-01-12T01:23:03.106Z,29.44
2023-01-12T01:25:32.520Z,29.42
2023-01-12T01:28:01.730Z,29.42
2023-01-12T01:30:31.297Z,29.42
2023-01-12T01:33:00.648Z,29.41
2023-01-12T01:35:29.908Z,29.40
2023-01-12T01:37:59.233Z,29.45
2023-01-12T01:40:28.596Z,29.43
2023-01-12T01:42:57.929Z,29.45
2023-01-12T01:45:27.232Z,29.44
2023-01-12T01:50:49.354Z,29.44
2023-01-12T01:53:19.958Z,29.43
2023-01-12T01:55:50.816Z,29.43
2023-01-12T01:58:22.034Z,29.42
2023-01-12T02:00:51.411Z,29.39
2023-01-12T02:03:20.795Z,29.44
2023-01-12T02:05:50.609Z,29.46
2023-01-12T02:08:30.325Z,29.43
2023-01-12T02:11:01.230Z,29.47
2023-01-12T02:13:50.325Z,29.47
2023-01-12T02:16:26.794Z,29.46
2023-01-12T02:19:06.481Z,29.45
2023-01-12T02:21:37.023Z,29.46
2023-01-12T02:24:13.608Z,29.46
2023-01-12T02:26:59.989Z,29.45
2023-01-12T02:29:30.486Z,29.45
2023-01-12T02:32:01.065Z,29.48
2023-01-12T02:34:34.474Z,29.45
2023-01-12T02:37:08.016Z,29.49
2023-01-12T02:39:41.555Z,29.46
2023-01-12T02:42:38.877Z,29.46
2023-01-12T02:45:15.387Z,29.44
2023-01-12T02:47:55.395Z,29.39
2023-01-12T02:50:29.101Z,29.43
2023-01-12T02:52:59.715Z,29.43
2023-01-12T02:55:29.056Z,29.43
2023-01-12T02:57:58.358Z,29.39
2023-01-12T03:00:28.952Z,29.34
2023-01-12T03:02:58.315Z,29.35
2023-01-12T03:05:27.836Z,29.34
2023-01-12T03:07:58.238Z,29.36
2023-01-12T03:10:32.537Z,29.33
2023-01-12T03:13:01.718Z,29.32
2023-01-12T03:15:32.583Z,29.33
2023-01-12T03:18:07.915Z,29.32
2023-01-12T03:20:37.305Z,29.36
2023-01-12T03:23:11.030Z,29.32
2023-01-12T03:25:43.358Z,29.30
2023-01-12T03:28:12.719Z,29.29
2023-01-12T03:30:52.559Z,29.28
2023-01-12T03:33:21.848Z,29.32
2023-01-12T03:36:01.128Z,29.29
2023-01-12T03:38:47.910Z,29.32
2023-01-12T03:41:27.619Z,29.29
2023-01-12T03:43:57.496Z,29.28
2023-01-12T03:46:40.214Z,29.29
2023-01-12T03:49:18.742Z,29.25
2023-01-12T03:51:48.430Z,29.24
2023-01-12T03:54:17.653Z,29.29
2023-01-12T03:56:47.335Z,29.26
2023-01-12T03:59:17.979Z,29.26
2023-01-12T04:01:48.787Z,29.28
2023-01-12T04:04:17.983Z,29.27
2023-01-12T04:06:47.524Z,29.24
2023-01-12T04:09:17.459Z,29.25
2023-01-12T04:12:05.097Z,29.24
2023-01-12T04:14:34.391Z,29.27
2023-01-12T04:17:03.893Z,29.25
2023-01-12T04:19:33.236Z,29.24
2023-01-12T04:22:20.061Z,29.23
2023-01-12T04:24:49.611Z,29.21
2023-01-12T04:27:18.813Z,29.24
2023-01-12T04:29:48.167Z,29.24
2023-01-12T04:32:19.206Z,29.23
2023-01-12T04:34:48.476Z,29.23
2023-01-12T04:37:17.858Z,29.25
2023-01-12T04:39:47.590Z,29.22
2023-01-12T04:42:35.305Z,29.22
2023-01-12T04:45:04.730Z,29.23
2023-01-12T04:47:35.103Z,29.21
2023-01-12T04:50:04.355Z,29.22
2023-01-12T04:52:33.649Z,29.21
2023-01-12T04:55:02.935Z,29.21
2023-01-12T04:57:32.235Z,29.23
2023-01-12T05:00:01.523Z,29.19
2023-01-12T05:02:30.798Z,29.17
2023-01-12T05:05:00.128Z,29.14
2023-01-12T05:07:29.493Z,29.19
2023-01-12T05:10:16.368Z,29.12
2023-01-12T05:12:45.892Z,29.12
2023-01-12T05:15:16.121Z,29.14
2023-01-12T05:17:46.011Z,29.20
2023-01-12T05:20:16.262Z,29.30
2023-01-12T05:22:49.841Z,29.42
2023-01-12T05:25:19.081Z,29.48
2023-01-12T05:27:51.220Z,29.56
2023-01-12T05:30:21.487Z,29.62
2023-01-12T05:32:50.743Z,29.69
2023-01-12T05:35:20.065Z,29.74
2023-01-12T05:37:51.680Z,29.77
2023-01-12T05:40:21.119Z,29.84
2023-01-12T05:43:09.024Z,29.86
2023-01-12T05:45:38.352Z,29.91
2023-01-12T05:48:07.787Z,29.95
2023-01-12T05:50:37.014Z,30.01
2023-01-12T05:53:06.393Z,30.04
2023-01-12T05:55:35.576Z,30.06
2023-01-12T05:58:04.650Z,29.96
2023-01-12T06:00:33.970Z,29.88
2023-01-12T06:03:04.038Z,29.80
2023-01-12T06:05:33.191Z,29.76
2023-01-12T06:08:03.757Z,29.71
2023-01-12T06:10:34.306Z,29.68
2023-01-12T06:13:20.957Z,29.67
2023-01-12T06:15:50.407Z,29.64
2023-01-12T06:18:21.011Z,29.63
2023-01-12T06:20:50.310Z,29.60
2023-01-12T06:23:19.629Z,29.58
2023-01-12T06:25:48.938Z,29.57
2023-01-12T06:28:18.523Z,29.52
2023-01-12T06:30:47.983Z,29.50
2023-01-12T06:33:17.978Z,29.47
2023-01-12T06:35:49.349Z,29.45
2023-01-12T06:38:19.190Z,29.42
2023-01-12T06:40:51.025Z,29.43
2023-01-12T06:43:22.127Z,29.38
2023-01-12T06:45:53.009Z,29.38
2023-01-12T06:48:26.299Z,29.37
2023-01-12T06:51:00.067Z,29.34
2023-01-12T06:53:29.414Z,29.35
2023-01-12T06:55:58.663Z,29.32
2023-01-12T06:58:27.991Z,29.27
2023-01-12T07:00:58.732Z,29.24
2023-01-12T07:03:27.957Z,29.21
2023-01-12T07:05:58.536Z,29.19
2023-01-12T07:08:28.014Z,29.20
2023-01-12T07:10:57.413Z,29.16
2023-01-12T07:13:26.699Z,29.16
2023-01-12T07:15:55.916Z,29.09
2023-01-12T07:18:25.097Z,29.07
2023-01-12T07:20:54.283Z,29.10
2023-01-12T07:23:23.628Z,29.07
2023-01-12T07:25:52.937Z,29.05
2023-01-12T07:28:22.330Z,29.03
2023-01-12T07:30:51.707Z,29.01
2023-01-12T07:33:20.924Z,29.13
2023-01-12T07:35:50.314Z,29.23
2023-01-12T07:38:19.660Z,29.29
2023-01-12T07:40:50.343Z,29.33
2023-01-12T07:43:20.179Z,29.40
2023-01-12T07:45:49.484Z,29.43
2023-01-12T07:48:18.897Z,29.47
2023-01-12T07:50:48.329Z,29.51
2023-01-12T07:53:18.429Z,29.56
2023-01-12T07:55:47.857Z,29.59
2023-01-12T07:58:17.872Z,29.61
2023-01-12T08:00:47.899Z,29.64
2023-01-12T08:03:17.386Z,29.67
2023-01-12T08:05:47.532Z,29.68
2023-01-12T08:08:17.535Z,29.71
2023-01-12T08:10:48.851Z,29.72
2023-01-12T08:13:19.374Z,29.74
2023-01-12T08:15:48.822Z,29.71
2023-01-12T08:18:19.639Z,29.74
2023-01-12T08:20:49.788Z,29.75
2023-01-12T08:23:23.818Z,29.78
2023-01-12T08:25:55.143Z,29.77
2023-01-12T08:28:34.801Z,29.76
2023-01-12T08:31:04.970Z,29.77
2023-01-12T08:33:34.190Z,29.77
2023-01-12T08:36:03.395Z,29.78
2023-01-12T08:38:32.743Z,29.76
2023-01-12T08:41:19.295Z,29.76
2023-01-12T08:44:03.734Z,29.74
2023-01-12T08:46:34.544Z,29.75
2023-01-12T08:49:05.635Z,29.75
2023-01-12T08:51:34.993Z,29.75
2023-01-12T08:54:04.596Z,29.74
2023-01-12T08:56:33.886Z,29.74
2023-01-12T08:59:03.419Z,29.71
2023-01-12T09:01:32.854Z,29.73
2023-01-12T09:04:02.239Z,29.70
2023-01-12T09:06:32.437Z,29.68
2023-01-12T09:09:14.069Z,29.66
2023-01-12T09:11:44.374Z,29.64
2023-01-12T09:14:13.709Z,29.62
2023-01-12T09:16:43.116Z,29.60
2023-01-12T09:19:12.495Z,29.60
2023-01-12T09:21:41.950Z,29.59
2023-01-12T09:24:11.707Z,29.56
2023-01-12T09:26:41.405Z,29.55
2023-01-12T09:29:11.413Z,29.53
2023-01-12T09:31:41.277Z,29.50
2023-01-12T09:34:10.540Z,29.48
2023-01-12T09:36:40.216Z,29.46
2023-01-12T09:39:18.638Z,29.43
2023-01-12T09:42:00.454Z,29.40
2023-01-12T09:44:57.886Z,29.37
2023-01-12T09:47:34.370Z,29.22
2023-01-12T09:50:10.050Z,29.15
2023-01-12T09:52:39.954Z,29.10
2023-01-12T09:55:10.712Z,29.05
2023-01-12T09:57:41.338Z,29.02
2023-01-12T10:00:18.535Z,28.99
2023-01-12T10:02:52.949Z,28.91
2023-01-12T10:05:38.989Z,28.88
2023-01-12T10:08:00.354Z,28.86
2023-01-12T10:10:29.560Z,28.79
2023-01-12T10:13:00.031Z,28.75
2023-01-12T10:15:33.593Z,28.70
2023-01-12T10:18:04.159Z,28.67
2023-01-12T10:20:34.855Z,28.63
2023-01-12T10:23:08.102Z,28.63
2023-01-12T10:25:38.756Z,28.60
2023-01-12T10:28:09.200Z,28.57
2023-01-12T10:30:41.680Z,28.52
2023-01-12T10:33:15.069Z,28.52
2023-01-12T10:36:02.232Z,28.50
2023-01-12T10:38:34.273Z,28.49
2023-01-12T10:41:07.783Z,28.49
2023-01-12T10:43:37.068Z,28.48
2023-01-12T10:46:16.261Z,28.49
2023-01-12T10:48:46.712Z,28.47
2023-01-12T10:51:27.006Z,28.49
2023-01-12T10:53:57.817Z,28.44
2023-01-12T10:56:28.535Z,28.44
2023-01-12T10:59:01.923Z,28.43
2023-01-12T11:01:47.062Z,28.42
2023-01-12T11:04:18.023Z,28.41
2023-01-12T11:06:47.833Z,28.40
2023-01-12T11:09:21.385Z,28.39
2023-01-12T11:11:50.750Z,28.37
2023-01-12T11:14:33.818Z,28.38
2023-01-12T11:17:04.494Z,28.37
2023-01-12T11:19:35.098Z,28.36
2023-01-12T11:22:05.811Z,28.35
2023-01-12T11:24:53.965Z,28.32
2023-01-12T11:27:24.493Z,28.31
2023-01-12T11:29:55.173Z,28.30
2023-01-12T11:32:28.880Z,28.29
2023-01-12T11:35:05.501Z,28.25
2023-01-12T11:37:35.264Z,28.29
2023-01-12T11:40:06.366Z,28.28
2023-01-12T11:42:53.370Z,28.29
2023-01-12T11:45:23.969Z,28.26
2023-01-12T11:47:57.563Z,28.25
2023-01-12T11:50:28.319Z,28.22
2023-01-12T11:52:57.699Z,28.22
2023-01-12T11:55:28.315Z,28.24
2023-01-12T11:58:16.975Z,28.25
2023-01-12T12:00:50.612Z,28.19
2023-01-12T12:03:37.573Z,28.18
2023-01-12T12:06:11.593Z,28.16
2023-01-12T12:08:42.134Z,28.12
2023-01-12T12:11:12.830Z,28.17
2023-01-12T12:13:46.413Z,28.17
2023-01-12T12:16:36.513Z,28.15
2023-01-12T12:19:13.575Z,28.09
2023-01-12T12:21:49.302Z,28.12
2023-01-12T12:24:24.005Z,28.12
2023-01-12T12:26:54.540Z,28.13
2023-01-12T12:29:31.010Z,28.11
2023-01-12T12:32:01.713Z,28.12
2023-01-12T12:34:34.959Z,28.10
2023-01-12T12:37:08.699Z,28.06
2023-01-12T12:39:39.756Z,28.09
2023-01-12T12:42:39.565Z,28.11
2023-01-12T12:45:25.077Z,28.10
2023-01-12T12:48:08.184Z,28.08
2023-01-12T12:50:48.374Z,28.05
2023-01-12T12:53:22.045Z,28.07
2023-01-12T12:55:52.282Z,28.09
2023-01-12T12:58:26.339Z,28.10
2023-01-12T13:01:35.170Z,28.11
2023-01-12T13:04:05.265Z,28.06
2023-01-12T13:06:37.819Z,28.10
2023-01-12T13:09:08.535Z,28.10
2023-01-12T13:11:52.430Z,28.06
2023-01-12T13:14:23.030Z,28.05
2023-01-12T13:16:52.766Z,28.06
2023-01-12T13:19:41.712Z,28.06
2023-01-12T13:22:30.069Z,28.08
2023-01-12T13:24:59.843Z,28.06
2023-01-12T13:27:46.936Z,28.07
2023-01-12T13:30:24.559Z,28.06
2023-01-12T13:33:11.770Z,28.09
2023-01-12T13:35:43.753Z,28.05
2023-01-12T13:38:17.423Z,28.05
2023-01-12T13:40:55.662Z,28.03
2023-01-12T13:43:20.749Z,28.04
2023-01-12T13:45:52.142Z,28.05
2023-01-12T13:48:21.445Z,28.06
2023-01-12T13:50:52.146Z,28.06
2023-01-12T13:53:27.622Z,28.02
2023-01-12T13:55:59.763Z,28.04
2023-01-12T13:58:29.145Z,28.03
2023-01-12T14:00:59.538Z,28.03
2023-01-12T14:03:45.082Z,28.07
2023-01-12T14:06:27.713Z,28.06
2023-01-12T14:09:16.610Z,28.03
2023-01-12T14:11:47.294Z,28.02
2023-01-12T14:14:35.434Z,28.01
2023-01-12T14:17:21.977Z,28.06
2023-01-12T14:19:52.270Z,28.04
2023-01-12T14:22:21.701Z,28.02
2023-01-12T14:24:50.919Z,27.99
2023-01-12T14:27:25.065Z,28.01
2023-01-12T14:29:54.632Z,28.01
2023-01-12T14:32:24.270Z,28.01
2023-01-12T14:34:55.045Z,27.98
2023-01-12T14:37:25.774Z,28.04
2023-01-12T14:39:55.052Z,28.10
2023-01-12T14:42:41.837Z,28.16
2023-01-12T14:45:39.080Z,28.21
2023-01-12T14:48:24.925Z,28.31
2023-01-12T14:51:03.781Z,28.61
2023-01-12T14:53:33.513Z,28.78
2023-01-12T14:56:09.760Z,28.88
2023-01-12T14:58:39.013Z,28.87
2023-01-12T15:01:09.026Z,28.84
2023-01-12T15:03:43.722Z,28.85
2023-01-12T15:06:08.845Z,28.87
2023-01-12T15:08:38.168Z,28.86
2023-01-12T15:11:08.882Z,28.86
2023-01-12T15:13:40.004Z,28.88
2023-01-12T15:16:27.744Z,28.91
2023-01-12T15:19:14.693Z,28.90
2023-01-12T15:22:03.706Z,28.91
2023-01-12T15:24:51.902Z,29.03
2023-01-12T15:27:21.871Z,29.06
2023-01-12T15:29:51.145Z,29.03
2023-01-12T15:32:46.858Z,29.02
2023-01-12T15:35:10.736Z,28.99
2023-01-12T15:37:40.133Z,28.96
2023-01-12T15:40:12.881Z,28.94
2023-01-12T15:42:42.047Z,28.96
2023-01-12T15:45:16.625Z,28.97
2023-01-12T15:47:45.867Z,28.97
2023-01-12T15:50:15.190Z,28.95
2023-01-12T15:52:44.742Z,28.96
2023-01-12T15:55:21.093Z,28.95
2023-01-12T15:57:52.220Z,28.94
2023-01-12T16:00:22.316Z,28.95
2023-01-12T16:02:51.932Z,28.94
2023-01-12T16:05:21.815Z,28.93
2023-01-12T16:07:51.941Z,28.94
2023-01-12T16:10:21.498Z,28.93
2023-01-12T16:12:50.783Z,28.91
2023-01-12T16:15:21.067Z,28.91
2023-01-12T16:17:50.883Z,28.86
2023-01-12T16:20:22.290Z,28.78
2023-01-12T16:22:53.161Z,28.72
2023-01-12T16:25:22.423Z,28.69
2023-01-12T16:27:51.777Z,28.65
2023-01-12T16:30:21.741Z,28.62
2023-01-12T16:32:50.986Z,28.59
2023-01-12T16:35:21.824Z,28.57
2023-01-12T16:37:55.188Z,28.56
2023-01-12T16:40:24.700Z,28.51
2023-01-12T16:42:54.049Z,28.50
2023-01-12T16:45:23.319Z,28.46
2023-01-12T16:47:58.923Z,28.46
2023-01-12T16:50:28.171Z,28.47
2023-01-12T16:52:57.715Z,28.44
2023-01-12T16:55:27.422Z,28.41
2023-01-12T16:57:56.919Z,28.41
2023-01-12T17:00:27.674Z,28.38
2023-01-12T17:02:57.116Z,28.36
2023-01-12T17:05:26.506Z,28.32
2023-01-12T17:07:56.462Z,28.32
2023-01-12T17:10:25.957Z,28.31
2023-01-12T17:13:00.080Z,28.25
2023-01-12T17:15:26.177Z,28.24
2023-01-12T17:17:56.628Z,28.22
2023-01-12T17:20:28.965Z,28.19
2023-01-12T17:22:58.396Z,28.20
2023-01-12T17:25:28.858Z,28.15
2023-01-12T17:27:58.370Z,28.14
2023-01-12T17:30:27.995Z,28.13
2023-01-12T17:32:58.764Z,28.11
2023-01-12T17:35:28.323Z,28.09
2023-01-12T17:37:57.638Z,28.13
2023-01-12T17:40:28.214Z,28.11
2023-01-12T17:43:05.792Z,28.09
2023-01-12T17:45:35.468Z,28.10
2023-01-12T17:48:04.673Z,28.09
2023-01-12T17:50:34.337Z,28.06
2023-01-12T17:53:04.219Z,28.04
2023-01-12T17:55:36.698Z,28.04
2023-01-12T17:58:04.187Z,28.06
2023-01-12T18:00:33.903Z,28.01
2023-01-12T18:03:04.334Z,28.00
2023-01-12T18:05:33.894Z,27.97
2023-01-12T18:08:04.425Z,27.97
2023-01-12T18:10:33.643Z,27.95
2023-01-12T18:13:02.806Z,28.02
2023-01-12T18:15:32.229Z,28.04
2023-01-12T18:18:01.529Z,28.08
2023-01-12T18:20:33.629Z,28.09
2023-01-12T18:23:03.189Z,28.13
2023-01-12T18:25:32.931Z,28.14
2023-01-12T18:28:02.365Z,28.18
2023-01-12T18:30:32.281Z,28.21
2023-01-12T18:33:01.724Z,28.23
2023-01-12T18:35:31.320Z,28.26
2023-01-12T18:38:00.894Z,28.28
2023-01-12T18:40:32.786Z,28.31
2023-01-12T18:43:02.017Z,28.34
2023-01-12T18:45:31.400Z,28.34
2023-01-12T18:48:17.963Z,28.33
2023-01-12T18:51:06.007Z,28.32
2023-01-12T18:53:35.683Z,28.32
2023-01-12T18:56:05.945Z,28.27
2023-01-12T18:58:35.453Z,28.29
2023-01-12T19:01:19.218Z,28.27
2023-01-12T19:03:51.445Z,28.27
2023-01-12T19:06:27.324Z,28.26
2023-01-12T19:09:14.350Z,28.24
2023-01-12T19:11:43.663Z,28.22
2023-01-12T19:14:33.458Z,28.19
2023-01-12T19:17:20.462Z,28.19
2023-01-12T19:19:50.419Z,28.20
2023-01-12T19:22:37.735Z,28.19
2023-01-12T19:25:24.675Z,28.20
2023-01-12T19:28:11.597Z,28.20
2023-01-12T19:30:40.770Z,28.16
2023-01-12T19:33:16.218Z,28.17
2023-01-12T19:35:45.557Z,28.16
2023-01-12T19:38:15.131Z,28.16
2023-01-12T19:40:51.966Z,28.13
2023-01-12T19:43:23.678Z,28.12
2023-01-12T19:45:53.604Z,28.14
2023-01-12T19:48:25.841Z,28.14
2023-01-12T19:50:55.094Z,28.12
2023-01-12T19:53:26.436Z,28.13
2023-01-12T19:55:56.011Z,28.12
2023-01-12T19:58:26.104Z,28.11
2023-01-12T20:00:56.615Z,28.14
2023-01-12T20:03:27.497Z,28.13
2023-01-12T20:05:56.830Z,28.13
2023-01-12T20:08:26.462Z,28.13
2023-01-12T20:10:59.009Z,28.13
2023-01-12T20:13:28.567Z,28.13
2023-01-12T20:15:58.463Z,28.13
2023-01-12T20:18:28.345Z,28.12
2023-01-12T20:21:00.334Z,28.12
2023-01-12T20:23:29.627Z,28.10
2023-01-12T20:25:58.957Z,28.13
2023-01-12T20:28:28.119Z,28.15
2023-01-12T20:30:59.350Z,28.17
2023-01-12T20:33:29.502Z,28.19
2023-01-12T20:35:59.348Z,28.20
2023-01-12T20:38:28.571Z,28.22
2023-01-12T20:40:58.661Z,28.26
2023-01-12T20:43:27.884Z,28.26
2023-01-12T20:45:56.977Z,28.28
2023-01-12T20:48:26.148Z,28.32
2023-01-12T20:50:55.313Z,28.33
2023-01-12T20:53:26.826Z,28.29
2023-01-12T20:55:56.197Z,28.31
2023-01-12T20:58:25.488Z,28.32
2023-01-12T21:00:55.050Z,28.31
2023-01-12T21:03:24.353Z,28.32
2023-01-12T21:05:55.159Z,28.29
2023-01-12T21:08:25.192Z,28.29
2023-01-12T21:10:55.330Z,28.32
2023-01-12T21:13:24.663Z,28.29
2023-01-12T21:16:03.739Z,28.29
2023-01-12T21:18:33.059Z,28.27
2023-01-12T21:21:02.243Z,28.26
2023-01-12T21:23:31.421Z,28.24
2023-01-12T21:26:01.292Z,28.25
2023-01-12T21:28:30.779Z,28.22
2023-01-12T21:31:01.327Z,28.21
2023-01-12T21:33:30.616Z,28.23
2023-01-12T21:35:59.668Z,28.22
2023-01-12T21:38:28.881Z,28.22
2023-01-12T21:40:58.135Z,28.22
2023-01-12T21:43:27.481Z,28.22
2023-01-12T21:45:58.235Z,28.20
2023-01-12T21:48:27.560Z,28.20
2023-01-12T21:50:58.196Z,28.23
2023-01-12T21:53:27.462Z,28.20
2023-01-12T21:55:57.654Z,28.21
2023-01-12T21:58:26.960Z,28.21
2023-01-12T22:00:56.363Z,28.21
2023-01-12T22:03:26.222Z,28.22
2023-01-12T22:05:55.528Z,28.21
2023-01-12T22:08:24.721Z,28.22
2023-01-12T22:10:54.194Z,28.21
2023-01-12T22:13:23.419Z,28.20
2023-01-12T22:15:55.267Z,28.20
2023-01-12T22:18:25.035Z,28.22
2023-01-12T22:20:54.358Z,28.20
2023-01-12T22:23:23.705Z,28.22
2023-01-12T22:25:52.970Z,28.22
2023-01-12T22:28:22.294Z,28.21
2023-01-12T22:30:52.597Z,28.20
2023-01-12T22:33:21.989Z,28.21
2023-01-12T22:35:51.860Z,28.22
2023-01-12T22:38:28.257Z,28.22
2023-01-12T22:40:53.618Z,28.22
2023-01-12T22:43:28.560Z,28.23
2023-01-12T22:45:58.938Z,28.23
2023-01-12T22:48:28.391Z,28.24
2023-01-12T22:50:57.640Z,28.21
2023-01-12T22:53:26.801Z,28.21
2023-01-12T22:55:56.109Z,28.20
2023-01-12T22:58:25.426Z,28.22
2023-01-12T23:00:55.510Z,28.20
2023-01-12T23:03:25.121Z,28.22
2023-01-12T23:05:55.905Z,28.21
2023-01-12T23:08:25.136Z,28.19
2023-01-12T23:10:54.951Z,28.22
2023-01-12T23:13:24.363Z,28.22
2023-01-12T23:15:59.128Z,28.20
2023-01-12T23:18:30.082Z,28.21
2023-01-12T23:21:07.673Z,28.32
2023-01-12T23:23:37.030Z,28.31
2023-01-12T23:26:06.586Z,28.28
2023-01-12T23:28:37.276Z,28.26
2023-01-12T23:31:10.256Z,28.26
2023-01-12T23:33:39.615Z,28.27
2023-01-12T23:36:09.654Z,28.22
2023-01-12T23:38:38.937Z,28.21
2023-01-12T23:41:21.106Z,28.21
2023-01-12T23:43:51.453Z,28.20
2023-01-12T23:46:23.521Z,28.18
2023-01-12T23:48:53.408Z,28.16
2023-01-12T23:51:25.229Z,28.14
2023-01-12T23:53:56.077Z,28.10
2023-01-12T23:56:25.491Z,28.04
2023-01-12T23:58:54.889Z,28.01
